sensor_id;sensor_type;location;lat;lon;timestamp;pressure;altitude;pressure_sealevel;temperature;humidity
11349;BME280;5729;43.570;27.826;2023-01-25T00:01:30;100656.00;;;0.90;100.00
11349;BME280;5729;43.570;27.826;2023-01-25T00:03:57;100648.56;;;0.60;100.00
11349;BME280;5729;43.570;27.826;2023-01-25T00:06:22;100646.66;;;0.87;100.00
11349;BME280;5729;43.570;27.826;2023-01-25T00:08:49;100648.22;;;0.83;100.00
11349;BME280;5729;43.570;27.826;2023-01-25T00:11:14;100642.72;;;0.90;100.00
11349;BME280;5729;43.570;27.826;2023-01-25T00:13:41;100646.25;;;1.05;100.00
11349;BME280;5729;43.570;27.826;2023-01-25T00:16:07;100623.06;;;0.91;100.00
11349;BME280;5729;43.570;27.826;2023-01-25T00:18:33;100637.97;;;0.97;100.00
11349;BME280;5729;43.570;27.826;2023-01-25T00:20:58;100642.59;;;0.75;100.00
11349;BME280;5729;43.570;27.826;2023-01-25T00:23:23;100621.03;;;0.66;100.00
11349;BME280;5729;43.570;27.826;2023-01-25T00:25:55;100631.97;;;0.75;100.00
11349;BME280;5729;43.570;27.826;2023-01-25T00:28:21;100635.25;;;0.87;100.00
11349;BME280;5729;43.570;27.826;2023-01-25T00:30:46;100634.13;;;0.78;100.00
11349;BME280;5729;43.570;27.826;2023-01-25T00:35:43;100638.81;;;0.70;100.00
11349;BME280;5729;43.570;27.826;2023-01-25T00:38:29;100624.38;;;0.88;100.00
11349;BME280;5729;43.570;27.826;2023-01-25T00:40:56;100620.41;;;0.91;100.00
11349;BME280;5729;43.570;27.826;2023-01-25T00:43:22;100614.59;;;0.94;100.00
11349;BME280;5729;43.570;27.826;2023-01-25T00:45:48;100613.88;;;0.66;100.00
11349;BME280;5729;43.570;27.826;2023-01-25T00:48:13;100615.34;;;0.57;100.00
11349;BME280;5729;43.570;27.826;2023-01-25T00:50:39;100608.91;;;0.80;100.00
11349;BME280;5729;43.570;27.826;2023-01-25T00:53:04;100621.94;;;0.82;100.00
11349;BME280;5729;43.570;27.826;2023-01-25T00:55:30;100611.28;;;0.77;100.00
11349;BME280;5729;43.570;27.826;2023-01-25T00:57:55;100611.25;;;0.71;100.00
11349;BME280;5729;43.570;27.826;2023-01-25T01:00:21;100622.88;;;0.65;100.00
11349;BME280;5729;43.570;27.826;2023-01-25T01:02:46;100616.84;;;0.43;100.00
11349;BME280;5729;43.570;27.826;2023-01-25T01:05:12;100619.63;;;0.58;100.00
11349;BME280;5729;43.570;27.826;2023-01-25T01:07:37;100621.59;;;0.73;100.00
11349;BME280;5729;43.570;27.826;2023-01-25T01:10:03;100612.25;;;0.65;100.00
11349;BME280;5729;43.570;27.826;2023-01-25T01:12:28;100625.56;;;0.70;100.00
11349;BME280;5729;43.570;27.826;2023-01-25T01:14:54;100621.81;;;0.66;100.00
11349;BME280;5729;43.570;27.826;2023-01-25T01:17:20;100606.31;;;0.53;100.00
11349;BME280;5729;43.570;27.826;2023-01-25T01:19:46;100614.56;;;0.57;100.00
11349;BME280;5729;43.570;27.826;2023-01-25T01:22:12;100620.41;;;0.59;100.00
11349;BME280;5729;43.570;27.826;2023-01-25T01:24:37;100611.50;;;0.70;100.00
11349;BME280;5729;43.570;27.826;2023-01-25T01:27:03;100619.44;;;0.65;100.00
11349;BME280;5729;43.570;27.826;2023-01-25T01:29:28;100608.88;;;0.75;100.00
11349;BME280;5729;43.570;27.826;2023-01-25T01:31:54;100602.69;;;0.64;100.00
11349;BME280;5729;43.570;27.826;2023-01-25T01:34:20;100611.63;;;0.53;100.00
11349;BME280;5729;43.570;27.826;2023-01-25T01:36:46;100601.59;;;0.60;100.00
11349;BME280;5729;43.570;27.826;2023-01-25T01:39:11;100598.59;;;0.84;100.00
11349;BME280;5729;43.570;27.826;2023-01-25T01:41:37;100606.84;;;0.87;100.00
11349;BME280;5729;43.570;27.826;2023-01-25T01:44:03;100597.78;;;0.83;100.00
11349;BME280;5729;43.570;27.826;2023-01-25T01:46:34;100603.53;;;0.70;100.00
11349;BME280;5729;43.570;27.826;2023-01-25T01:49:49;100593.47;;;0.72;100.00
11349;BME280;5729;43.570;27.826;2023-01-25T01:52:10;100596.16;;;0.77;100.00
11349;BME280;5729;43.570;27.826;2023-01-25T01:54:48;100608.38;;;0.46;100.00
11349;BME280;5729;43.570;27.826;2023-01-25T01:57:19;100600.69;;;0.45;100.00
11349;BME280;5729;43.570;27.826;2023-01-25T02:02:25;100590.31;;;0.43;100.00
11349;BME280;5729;43.570;27.826;2023-01-25T02:04:53;100597.06;;;0.56;100.00
11349;BME280;5729;43.570;27.826;2023-01-25T02:07:24;100588.00;;;0.52;100.00
11349;BME280;5729;43.570;27.826;2023-01-25T02:09:53;100598.13;;;0.55;100.00
11349;BME280;5729;43.570;27.826;2023-01-25T02:12:20;100575.63;;;0.62;100.00
11349;BME280;5729;43.570;27.826;2023-01-25T02:14:51;100577.09;;;0.48;100.00
11349;BME280;5729;43.570;27.826;2023-01-25T02:17:37;100572.88;;;0.52;100.00
11349;BME280;5729;43.570;27.826;2023-01-25T02:22:35;100572.03;;;0.47;100.00
11349;BME280;5729;43.570;27.826;2023-01-25T02:25:09;100576.59;;;0.24;100.00
11349;BME280;5729;43.570;27.826;2023-01-25T02:27:39;100576.25;;;0.11;100.00
11349;BME280;5729;43.570;27.826;2023-01-25T02:30:07;100574.72;;;0.20;100.00
11349;BME280;5729;43.570;27.826;2023-01-25T02:32:33;100582.38;;;0.43;100.00
11349;BME280;5729;43.570;27.826;2023-01-25T02:34:58;100582.63;;;0.42;100.00
11349;BME280;5729;43.570;27.826;2023-01-25T02:37:24;100583.81;;;0.56;100.00
11349;BME280;5729;43.570;27.826;2023-01-25T02:39:50;100578.81;;;0.32;100.00
11349;BME280;5729;43.570;27.826;2023-01-25T02:42:15;100581.84;;;0.46;100.00
11349;BME280;5729;43.570;27.826;2023-01-25T02:44:41;100566.94;;;0.40;100.00
11349;BME280;5729;43.570;27.826;2023-01-25T02:47:07;100577.69;;;0.55;100.00
11349;BME280;5729;43.570;27.826;2023-01-25T02:49:35;100577.41;;;0.25;100.00
11349;BME280;5729;43.570;27.826;2023-01-25T02:52:01;100577.06;;;0.16;100.00
11349;BME280;5729;43.570;27.826;2023-01-25T02:54:27;100577.94;;;0.22;100.00
11349;BME280;5729;43.570;27.826;2023-01-25T02:56:52;100573.38;;;0.17;100.00
11349;BME280;5729;43.570;27.826;2023-01-25T02:59:18;100572.06;;;0.20;100.00
11349;BME280;5729;43.570;27.826;2023-01-25T03:01:44;100577.81;;;0.12;100.00
11349;BME280;5729;43.570;27.826;2023-01-25T03:04:09;100577.03;;;0.11;100.00
11349;BME280;5729;43.570;27.826;2023-01-25T03:06:36;100588.72;;;-0.12;100.00
11349;BME280;5729;43.570;27.826;2023-01-25T03:09:03;100581.63;;;-0.06;100.00
11349;BME280;5729;43.570;27.826;2023-01-25T03:11:29;100583.22;;;-0.05;100.00
11349;BME280;5729;43.570;27.826;2023-01-25T03:13:54;100586.84;;;-0.11;100.00
11349;BME280;5729;43.570;27.826;2023-01-25T03:16:20;100566.41;;;-0.16;100.00
11349;BME280;5729;43.570;27.826;2023-01-25T03:18:45;100584.72;;;0.13;100.00
11349;BME280;5729;43.570;27.826;2023-01-25T03:21:16;100586.31;;;0.14;100.00
11349;BME280;5729;43.570;27.826;2023-01-25T03:23:43;100586.28;;;0.09;100.00
11349;BME280;5729;43.570;27.826;2023-01-25T03:26:14;100580.22;;;0.13;100.00
11349;BME280;5729;43.570;27.826;2023-01-25T03:28:41;100576.97;;;0.06;100.00
11349;BME280;5729;43.570;27.826;2023-01-25T03:31:10;100577.28;;;0.10;100.00
11349;BME280;5729;43.570;27.826;2023-01-25T03:33:35;100577.72;;;0.02;100.00
11349;BME280;5729;43.570;27.826;2023-01-25T03:36:02;100574.47;;;-0.06;100.00
11349;BME280;5729;43.570;27.826;2023-01-25T03:38:27;100563.63;;;-0.04;100.00
11349;BME280;5729;43.570;27.826;2023-01-25T03:40:53;100589.03;;;0.19;100.00
11349;BME280;5729;43.570;27.826;2023-01-25T03:43:19;100568.16;;;0.27;100.00
11349;BME280;5729;43.570;27.826;2023-01-25T03:45:44;100569.13;;;0.16;100.00
11349;BME280;5729;43.570;27.826;2023-01-25T03:48:10;100575.78;;;0.19;100.00
11349;BME280;5729;43.570;27.826;2023-01-25T03:50:35;100575.38;;;0.32;100.00
11349;BME280;5729;43.570;27.826;2023-01-25T03:53:04;100573.22;;;0.29;100.00
11349;BME280;5729;43.570;27.826;2023-01-25T03:55:41;100566.97;;;0.13;100.00
11349;BME280;5729;43.570;27.826;2023-01-25T03:58:06;100568.41;;;0.26;100.00
11349;BME280;5729;43.570;27.826;2023-01-25T04:00:32;100560.50;;;0.31;100.00
11349;BME280;5729;43.570;27.826;2023-01-25T04:02:57;100573.44;;;0.22;100.00
11349;BME280;5729;43.570;27.826;2023-01-25T04:05:23;100570.50;;;0.24;100.00
11349;BME280;5729;43.570;27.826;2023-01-25T04:07:48;100568.78;;;0.08;100.00
11349;BME280;5729;43.570;27.826;2023-01-25T04:10:14;100567.19;;;0.07;100.00
11349;BME280;5729;43.570;27.826;2023-01-25T04:12:39;100565.41;;;0.17;100.00
11349;BME280;5729;43.570;27.826;2023-01-25T04:15:05;100576.34;;;0.21;100.00
11349;BME280;5729;43.570;27.826;2023-01-25T04:17:31;100581.22;;;0.07;100.00
11349;BME280;5729;43.570;27.826;2023-01-25T04:19:56;100571.06;;;0.26;100.00
11349;BME280;5729;43.570;27.826;2023-01-25T04:22:21;100570.50;;;0.24;100.00
11349;BME280;5729;43.570;27.826;2023-01-25T04:24:47;100572.63;;;0.22;100.00
11349;BME280;5729;43.570;27.826;2023-01-25T04:27:12;100584.06;;;0.27;100.00
11349;BME280;5729;43.570;27.826;2023-01-25T04:29:38;100574.19;;;0.23;100.00
11349;BME280;5729;43.570;27.826;2023-01-25T04:32:03;100566.81;;;0.25;100.00
11349;BME280;5729;43.570;27.826;2023-01-25T04:34:29;100576.13;;;0.27;100.00
11349;BME280;5729;43.570;27.826;2023-01-25T04:36:54;100573.31;;;0.39;100.00
11349;BME280;5729;43.570;27.826;2023-01-25T04:39:19;100575.22;;;0.44;100.00
11349;BME280;5729;43.570;27.826;2023-01-25T04:41:45;100578.09;;;0.42;100.00
11349;BME280;5729;43.570;27.826;2023-01-25T04:44:10;100574.50;;;0.58;100.00
11349;BME280;5729;43.570;27.826;2023-01-25T04:46:36;100587.25;;;0.56;100.00
11349;BME280;5729;43.570;27.826;2023-01-25T04:49:01;100590.47;;;0.63;100.00
11349;BME280;5729;43.570;27.826;2023-01-25T04:51:27;100589.44;;;0.64;100.00
11349;BME280;5729;43.570;27.826;2023-01-25T04:53:52;100592.50;;;0.51;100.00
11349;BME280;5729;43.570;27.826;2023-01-25T04:56:18;100589.63;;;0.58;100.00
11349;BME280;5729;43.570;27.826;2023-01-25T04:58:43;100581.66;;;0.58;100.00
11349;BME280;5729;43.570;27.826;2023-01-25T05:01:08;100572.63;;;0.54;100.00
11349;BME280;5729;43.570;27.826;2023-01-25T05:03:34;100583.88;;;0.66;100.00
11349;BME280;5729;43.570;27.826;2023-01-25T05:05:59;100575.69;;;0.72;100.00
11349;BME280;5729;43.570;27.826;2023-01-25T05:08:25;100574.25;;;0.60;100.00
11349;BME280;5729;43.570;27.826;2023-01-25T05:10:51;100567.78;;;0.78;100.00
11349;BME280;5729;43.570;27.826;2023-01-25T05:13:16;100580.06;;;0.89;100.00
11349;BME280;5729;43.570;27.826;2023-01-25T05:15:41;100573.34;;;0.76;100.00
11349;BME280;5729;43.570;27.826;2023-01-25T05:18:07;100578.81;;;0.64;100.00
11349;BME280;5729;43.570;27.826;2023-01-25T05:20:33;100574.63;;;0.73;100.00
11349;BME280;5729;43.570;27.826;2023-01-25T05:22:58;100576.13;;;0.59;100.00
11349;BME280;5729;43.570;27.826;2023-01-25T05:25:23;100585.72;;;0.65;100.00
11349;BME280;5729;43.570;27.826;2023-01-25T05:28:07;100587.59;;;0.65;100.00
11349;BME280;5729;43.570;27.826;2023-01-25T05:30:33;100592.34;;;0.68;100.00
11349;BME280;5729;43.570;27.826;2023-01-25T05:32:58;100586.47;;;0.61;100.00
11349;BME280;5729;43.570;27.826;2023-01-25T05:35:24;100583.81;;;0.61;100.00
11349;BME280;5729;43.570;27.826;2023-01-25T05:37:50;100588.03;;;0.57;100.00
11349;BME280;5729;43.570;27.826;2023-01-25T05:40:15;100580.75;;;0.42;100.00
11349;BME280;5729;43.570;27.826;2023-01-25T05:42:41;100595.63;;;0.43;100.00
11349;BME280;5729;43.570;27.826;2023-01-25T05:45:07;100591.81;;;0.34;100.00
11349;BME280;5729;43.570;27.826;2023-01-25T05:47:33;100593.81;;;0.49;100.00
11349;BME280;5729;43.570;27.826;2023-01-25T05:49:58;100597.34;;;0.59;100.00
11349;BME280;5729;43.570;27.826;2023-01-25T05:52:24;100602.19;;;0.67;100.00
11349;BME280;5729;43.570;27.826;2023-01-25T05:54:49;100602.44;;;0.66;100.00
11349;BME280;5729;43.570;27.826;2023-01-25T05:57:15;100603.88;;;0.79;100.00
11349;BME280;5729;43.570;27.826;2023-01-25T05:59:40;100602.06;;;0.84;100.00
11349;BME280;5729;43.570;27.826;2023-01-25T06:02:06;100600.25;;;0.90;100.00
11349;BME280;5729;43.570;27.826;2023-01-25T06:04:31;100603.16;;;0.88;100.00
11349;BME280;5729;43.570;27.826;2023-01-25T06:06:57;100544.44;;;0.48;100.00
11349;BME280;5729;43.570;27.826;2023-01-25T06:09:22;100605.38;;;0.69;100.00
11349;BME280;5729;43.570;27.826;2023-01-25T06:11:48;100612.75;;;0.62;100.00
11349;BME280;5729;43.570;27.826;2023-01-25T06:14:14;100606.25;;;0.80;100.00
11349;BME280;5729;43.570;27.826;2023-01-25T06:16:39;100602.34;;;0.88;100.00
11349;BME280;5729;43.570;27.826;2023-01-25T06:19:06;100599.06;;;0.76;100.00
11349;BME280;5729;43.570;27.826;2023-01-25T06:21:32;100605.50;;;0.85;100.00
11349;BME280;5729;43.570;27.826;2023-01-25T06:23:59;100600.94;;;0.80;100.00
11349;BME280;5729;43.570;27.826;2023-01-25T06:26:24;100607.41;;;0.89;100.00
11349;BME280;5729;43.570;27.826;2023-01-25T06:28:50;100602.13;;;0.94;100.00
11349;BME280;5729;43.570;27.826;2023-01-25T06:31:16;100597.66;;;0.68;100.00
11349;BME280;5729;43.570;27.826;2023-01-25T06:33:45;100607.47;;;0.62;100.00
11349;BME280;5729;43.570;27.826;2023-01-25T06:36:14;100604.00;;;0.62;100.00
11349;BME280;5729;43.570;27.826;2023-01-25T06:38:40;100605.91;;;0.66;100.00
11349;BME280;5729;43.570;27.826;2023-01-25T06:41:08;100612.53;;;0.69;100.00
11349;BME280;5729;43.570;27.826;2023-01-25T06:43:34;100606.16;;;0.65;100.00
11349;BME280;5729;43.570;27.826;2023-01-25T06:46:01;100619.44;;;0.70;100.00
11349;BME280;5729;43.570;27.826;2023-01-25T06:48:28;100624.88;;;0.85;100.00
11349;BME280;5729;43.570;27.826;2023-01-25T06:51:03;100624.13;;;0.90;100.00
11349;BME280;5729;43.570;27.826;2023-01-25T06:53:31;100593.25;;;0.79;100.00
11349;BME280;5729;43.570;27.826;2023-01-25T06:56:19;100623.84;;;0.86;100.00
11349;BME280;5729;43.570;27.826;2023-01-25T06:58:46;100622.31;;;0.63;100.00
11349;BME280;5729;43.570;27.826;2023-01-25T07:01:22;100628.84;;;0.83;100.00
11349;BME280;5729;43.570;27.826;2023-01-25T07:03:53;100628.84;;;0.51;100.00
11349;BME280;5729;43.570;27.826;2023-01-25T07:06:19;100615.25;;;0.74;100.00
11349;BME280;5729;43.570;27.826;2023-01-25T07:08:45;100609.38;;;0.72;100.00
11349;BME280;5729;43.570;27.826;2023-01-25T07:11:12;100634.19;;;0.88;100.00
11349;BME280;5729;43.570;27.826;2023-01-25T07:13:41;100632.38;;;0.93;100.00
11349;BME280;5729;43.570;27.826;2023-01-25T07:16:10;100628.81;;;0.78;100.00
11349;BME280;5729;43.570;27.826;2023-01-25T07:18:36;100627.22;;;0.77;100.00
11349;BME280;5729;43.570;27.826;2023-01-25T07:21:16;100634.28;;;0.98;100.00
11349;BME280;5729;43.570;27.826;2023-01-25T07:23:42;100633.16;;;0.89;100.00
11349;BME280;5729;43.570;27.826;2023-01-25T07:26:29;100616.69;;;0.92;100.00
11349;BME280;5729;43.570;27.826;2023-01-25T07:28:55;100631.25;;;0.84;100.00
11349;BME280;5729;43.570;27.826;2023-01-25T07:31:22;100637.75;;;0.66;100.00
11349;BME280;5729;43.570;27.826;2023-01-25T07:33:52;100623.47;;;0.72;100.00
11349;BME280;5729;43.570;27.826;2023-01-25T07:36:19;100621.38;;;0.80;100.00
11349;BME280;5729;43.570;27.826;2023-01-25T07:38:45;100619.88;;;0.89;100.00
11349;BME280;5729;43.570;27.826;2023-01-25T07:41:10;100618.53;;;0.91;100.00
11349;BME280;5729;43.570;27.826;2023-01-25T07:43:36;100615.13;;;0.96;100.00
11349;BME280;5729;43.570;27.826;2023-01-25T07:46:09;100623.66;;;0.98;100.00
11349;BME280;5729;43.570;27.826;2023-01-25T07:48:39;100629.16;;;0.91;100.00
11349;BME280;5729;43.570;27.826;2023-01-25T07:51:07;100627.59;;;0.90;100.00
11349;BME280;5729;43.570;27.826;2023-01-25T07:53:39;100627.44;;;1.07;100.00
11349;BME280;5729;43.570;27.826;2023-01-25T07:56:05;100637.97;;;0.97;100.00
11349;BME280;5729;43.570;27.826;2023-01-25T07:58:31;100634.56;;;1.01;100.00
11349;BME280;5729;43.570;27.826;2023-01-25T08:00:56;100621.81;;;1.03;100.00
11349;BME280;5729;43.570;27.826;2023-01-25T08:03:22;100628.84;;;0.83;100.00
11349;BME280;5729;43.570;27.826;2023-01-25T08:05:47;100622.06;;;1.02;100.00
11349;BME280;5729;43.570;27.826;2023-01-25T08:08:13;100625.28;;;1.04;100.00
11349;BME280;5729;43.570;27.826;2023-01-25T08:10:39;100637.28;;;1.12;100.00
11349;BME280;5729;43.570;27.826;2023-01-25T08:13:04;100630.63;;;1.09;100.00
11349;BME280;5729;43.570;27.826;2023-01-25T08:15:31;100629.16;;;1.28;100.00
11349;BME280;5729;43.570;27.826;2023-01-25T08:18:00;100644.63;;;0.99;100.00
11349;BME280;5729;43.570;27.826;2023-01-25T08:20:25;100636.19;;;1.07;100.00
11349;BME280;5729;43.570;27.826;2023-01-25T08:22:51;100641.75;;;1.06;100.00
11349;BME280;5729;43.570;27.826;2023-01-25T08:25:17;100617.25;;;0.94;100.00
11349;BME280;5729;43.570;27.826;2023-01-25T08:27:42;100629.31;;;1.12;100.00
11349;BME280;5729;43.570;27.826;2023-01-25T08:30:08;100637.56;;;1.15;100.00
11349;BME280;5729;43.570;27.826;2023-01-25T08:32:36;100635.81;;;1.31;100.00
11349;BME280;5729;43.570;27.826;2023-01-25T08:35:01;100645.13;;;1.33;100.00
11349;BME280;5729;43.570;27.826;2023-01-25T08:37:27;100639.38;;;1.52;100.00
11349;BME280;5729;43.570;27.826;2023-01-25T08:39:54;100634.09;;;1.62;100.00
11349;BME280;5729;43.570;27.826;2023-01-25T08:42:22;100620.75;;;1.47;100.00
11349;BME280;5729;43.570;27.826;2023-01-25T08:44:48;100640.00;;;1.69;100.00
11349;BME280;5729;43.570;27.826;2023-01-25T08:47:13;100636.81;;;1.67;100.00
11349;BME280;5729;43.570;27.826;2023-01-25T08:49:39;100627.44;;;1.59;100.00
11349;BME280;5729;43.570;27.826;2023-01-25T08:52:04;100630.38;;;1.58;100.00
11349;BME280;5729;43.570;27.826;2023-01-25T08:54:30;100630.34;;;1.53;100.00
11349;BME280;5729;43.570;27.826;2023-01-25T08:56:55;100632.69;;;1.44;100.00
11349;BME280;5729;43.570;27.826;2023-01-25T08:59:21;100631.19;;;1.63;100.00
11349;BME280;5729;43.570;27.826;2023-01-25T09:01:46;100641.06;;;1.73;100.00
11349;BME280;5729;43.570;27.826;2023-01-25T09:04:12;100631.25;;;1.73;100.00
11349;BME280;5729;43.570;27.826;2023-01-25T09:06:37;100627.84;;;1.93;100.00
11349;BME280;5729;43.570;27.826;2023-01-25T09:09:03;100616.66;;;1.86;100.00
11349;BME280;5729;43.570;27.826;2023-01-25T09:11:29;100616.16;;;1.94;100.00
11349;BME280;5729;43.570;27.826;2023-01-25T09:13:57;100617.53;;;2.02;100.00
11349;BME280;5729;43.570;27.826;2023-01-25T09:16:24;100615.66;;;2.07;100.00
11349;BME280;5729;43.570;27.826;2023-01-25T09:18:54;100608.19;;;1.89;100.00
11349;BME280;5729;43.570;27.826;2023-01-25T09:21:21;100609.78;;;1.90;100.00
11349;BME280;5729;43.570;27.826;2023-01-25T09:23:48;100606.63;;;2.18;100.00
11349;BME280;5729;43.570;27.826;2023-01-25T09:26:14;100606.34;;;2.05;100.00
11349;BME280;5729;43.570;27.826;2023-01-25T09:28:41;100603.94;;;2.03;100.00
11349;BME280;5729;43.570;27.826;2023-01-25T09:31:08;100589.56;;;1.94;100.00
11349;BME280;5729;43.570;27.826;2023-01-25T09:33:36;100591.69;;;1.97;100.00
11349;BME280;5729;43.570;27.826;2023-01-25T09:36:03;100591.97;;;1.96;100.00
11349;BME280;5729;43.570;27.826;2023-01-25T09:38:28;100586.13;;;1.99;100.00
11349;BME280;5729;43.570;27.826;2023-01-25T09:45:56;100576.31;;;2.09;100.00
11349;BME280;5729;43.570;27.826;2023-01-25T09:48:35;100577.91;;;2.15;100.00
11349;BME280;5729;43.570;27.826;2023-01-25T09:51:14;100571.28;;;2.28;100.00
11349;BME280;5729;43.570;27.826;2023-01-25T09:53:49;100565.66;;;2.09;100.00
11349;BME280;5729;43.570;27.826;2023-01-25T09:56:26;100574.69;;;1.98;100.00
11349;BME280;5729;43.570;27.826;2023-01-25T09:59:01;100565.38;;;2.06;100.00
11349;BME280;5729;43.570;27.826;2023-01-25T10:01:43;100564.88;;;2.09;100.00
11349;BME280;5729;43.570;27.826;2023-01-25T10:04:17;100551.84;;;2.17;100.00
11349;BME280;5729;43.570;27.826;2023-01-25T10:06:47;100562.44;;;1.92;100.00
11349;BME280;5729;43.570;27.826;2023-01-25T10:09:45;100537.72;;;1.87;100.00
11349;BME280;5729;43.570;27.826;2023-01-25T10:12:19;100549.97;;;2.08;100.00
11349;BME280;5729;43.570;27.826;2023-01-25T10:14:46;100551.84;;;2.02;100.00
11349;BME280;5729;43.570;27.826;2023-01-25T10:17:32;100552.91;;;2.11;100.00
11349;BME280;5729;43.570;27.826;2023-01-25T10:22:33;100537.47;;;2.29;100.00
11349;BME280;5729;43.570;27.826;2023-01-25T10:25:50;100546.03;;;2.36;100.00
11349;BME280;5729;43.570;27.826;2023-01-25T10:28:18;100536.16;;;2.31;100.00
11349;BME280;5729;43.570;27.826;2023-01-25T10:30:58;100523.09;;;2.50;100.00
11349;BME280;5729;43.570;27.826;2023-01-25T10:33:26;100538.53;;;2.28;100.00
11349;BME280;5729;43.570;27.826;2023-01-25T10:35:54;100530.31;;;2.29;100.00
11349;BME280;5729;43.570;27.826;2023-01-25T10:38:43;100522.59;;;2.12;100.00
11349;BME280;5729;43.570;27.826;2023-01-25T10:41:21;100516.75;;;2.26;100.00
11349;BME280;5729;43.570;27.826;2023-01-25T10:43:51;100522.06;;;2.21;100.00
11349;BME280;5729;43.570;27.826;2023-01-25T10:46:38;100517.81;;;2.25;100.00
11349;BME280;5729;43.570;27.826;2023-01-25T10:51:51;100502.91;;;2.13;100.00
11349;BME280;5729;43.570;27.826;2023-01-25T10:54:16;100497.03;;;2.06;100.00
11349;BME280;5729;43.570;27.826;2023-01-25T10:56:43;100497.31;;;2.10;100.00
11349;BME280;5729;43.570;27.826;2023-01-25T10:59:16;100489.09;;;2.01;100.00
11349;BME280;5729;43.570;27.826;2023-01-25T11:01:43;100493.31;;;2.07;100.00
11349;BME280;5729;43.570;27.826;2023-01-25T11:04:34;100488.81;;;2.23;100.00
11349;BME280;5729;43.570;27.826;2023-01-25T11:07:01;100480.56;;;1.99;100.00
11349;BME280;5729;43.570;27.826;2023-01-25T11:11:55;100481.09;;;2.22;100.00
11349;BME280;5729;43.570;27.826;2023-01-25T11:14:22;100476.03;;;2.05;100.00
11349;BME280;5729;43.570;27.826;2023-01-25T11:16:50;100469.13;;;2.09;100.00
11349;BME280;5729;43.570;27.826;2023-01-25T11:19:36;100473.91;;;2.32;100.00
11349;BME280;5729;43.570;27.826;2023-01-25T11:22:05;100468.84;;;2.15;100.00
11349;BME280;5729;43.570;27.826;2023-01-25T11:24:44;100474.97;;;2.21;100.00
11349;BME280;5729;43.570;27.826;2023-01-25T11:27:16;100458.47;;;2.29;100.00
11349;BME280;5729;43.570;27.826;2023-01-25T11:29:42;100452.88;;;2.15;100.00
11349;BME280;5729;43.570;27.826;2023-01-25T11:32:17;100460.59;;;2.27;100.00
11349;BME280;5729;43.570;27.826;2023-01-25T11:34:48;100446.78;;;2.25;100.00
11349;BME280;5729;43.570;27.826;2023-01-25T11:45:54;100440.09;;;2.53;100.00
11349;BME280;5729;43.570;27.826;2023-01-25T11:51:11;100418.78;;;2.58;100.00
11349;BME280;5729;43.570;27.826;2023-01-25T11:53:58;100436.59;;;2.63;100.00
11349;BME280;5729;43.570;27.826;2023-01-25T12:10:43;100417.22;;;2.27;100.00
11349;BME280;5729;43.570;27.826;2023-01-25T12:26:27;100414.84;;;2.30;100.00
11349;BME280;5729;43.570;27.826;2023-01-25T12:31:42;100411.41;;;2.19;100.00
11349;BME280;5729;43.570;27.826;2023-01-25T12:34:17;100410.09;;;2.12;100.00
11349;BME280;5729;43.570;27.826;2023-01-25T12:36:47;100404.22;;;2.20;100.00
11349;BME280;5729;43.570;27.826;2023-01-25T12:39:21;100401.84;;;2.24;100.00
11349;BME280;5729;43.570;27.826;2023-01-25T12:41:54;100408.47;;;2.16;100.00
11349;BME280;5729;43.570;27.826;2023-01-25T12:44:42;100395.44;;;2.25;100.00
11349;BME280;5729;43.570;27.826;2023-01-25T12:49:44;100396.00;;;2.11;100.00
11349;BME280;5729;43.570;27.826;2023-01-25T12:52:40;100390.38;;;2.28;100.00
11349;BME280;5729;43.570;27.826;2023-01-25T12:55:13;100387.47;;;2.25;100.00
11349;BME280;5729;43.570;27.826;2023-01-25T13:13:35;100391.47;;;2.07;100.00
11349;BME280;5729;43.570;27.826;2023-01-25T13:18:54;100391.22;;;2.13;100.00
11349;BME280;5729;43.570;27.826;2023-01-25T13:24:27;100400.00;;;1.99;100.00
11349;BME280;5729;43.570;27.826;2023-01-25T13:31:58;100384.81;;;2.09;100.00
11349;BME280;5729;43.570;27.826;2023-01-25T13:37:40;100387.47;;;2.19;100.00
11349;BME280;5729;43.570;27.826;2023-01-25T13:43:19;100393.31;;;2.16;100.00
11349;BME280;5729;43.570;27.826;2023-01-25T13:45:49;100381.34;;;2.19;100.00
11349;BME280;5729;43.570;27.826;2023-01-25T13:48:20;100368.88;;;2.09;100.00
11349;BME280;5729;43.570;27.826;2023-01-25T13:50:52;100388.75;;;2.37;100.00
11349;BME280;5729;43.570;27.826;2023-01-25T13:53:21;100381.59;;;2.33;100.00
11349;BME280;5729;43.570;27.826;2023-01-25T13:55:53;100392.25;;;2.17;100.00
11349;BME280;5729;43.570;27.826;2023-01-25T14:03:12;100392.28;;;1.97;100.00
11349;BME280;5729;43.570;27.826;2023-01-25T14:05:38;100398.13;;;1.94;100.00
11349;BME280;5729;43.570;27.826;2023-01-25T14:08:03;100395.22;;;1.86;100.00
11349;BME280;5729;43.570;27.826;2023-01-25T14:10:30;100387.50;;;1.69;100.00
11349;BME280;5729;43.570;27.826;2023-01-25T14:12:59;100390.94;;;1.85;100.00
11349;BME280;5729;43.570;27.826;2023-01-25T14:15:30;100393.09;;;1.88;100.00
11349;BME280;5729;43.570;27.826;2023-01-25T14:18:18;100383.78;;;1.65;100.00
11349;BME280;5729;43.570;27.826;2023-01-25T14:20:46;100400.00;;;1.68;100.00
11349;BME280;5729;43.570;27.826;2023-01-25T14:23:38;100394.94;;;1.72;100.00
11349;BME280;5729;43.570;27.826;2023-01-25T14:28:43;100384.84;;;1.79;100.00
11349;BME280;5729;43.570;27.826;2023-01-25T14:31:22;100388.84;;;1.87;100.00
11349;BME280;5729;43.570;27.826;2023-01-25T14:33:49;100380.59;;;1.73;100.00
11349;BME280;5729;43.570;27.826;2023-01-25T14:36:19;100384.03;;;1.58;100.00
11349;BME280;5729;43.570;27.826;2023-01-25T14:38:45;100383.78;;;1.65;100.00
11349;BME280;5729;43.570;27.826;2023-01-25T14:43:44;100380.59;;;1.63;100.00
11349;BME280;5729;43.570;27.826;2023-01-25T14:46:30;100391.22;;;1.53;100.00